Time;durP1;ratioP1;P1;durP2;ratioP2;P2;SDS_P1;SDS_P2;PMS_P1;PMS_P2;Temp;Humidity;BMP_temperature;BMP_pressure;BME280_temperature;BME280_humidity;BME280_pressure;Samples;Min_cycle;Max_cycle;Signal;HPM_P1;HPM_P2
2023/10/01 00:05:28;;;;;;;5.90;3.40;;;;;;;;;;3868783;36;43965;-69
2023/10/01 00:08:19;;;;;;;7.22;3.30;;;;;;;;;;4393347;32;60071;-70
2023/10/01 00:11:09;;;;;;;5.25;3.17;;;;;;;;;;4406990;32;70433;-70
2023/10/01 00:13:56;;;;;;;5.25;3.08;;;;;;;;;;4416740;32;69148;-70
2023/10/01 00:16:42;;;;;;;;;;;;;;;;;;4406324;32;67630;-70
2023/10/01 00:19:30;;;;;;;5.80;3.33;;;;;;;;;;4403665;32;71035;-70
2023/10/01 00:22:17;;;;;;;4.15;2.92;;;;;;;;;;4390092;32;66598;-70
2023/10/01 00:25:06;;;;;;;4.97;3.05;;;;;;;;;;4426409;32;66123;-70
2023/10/01 00:27:52;;;;;;;5.05;3.00;;;;;;;;;;4411509;32;62363;-70
2023/10/01 00:30:39;;;;;;;5.50;3.15;;;;;;;;;;4426251;32;71933;-70
2023/10/01 00:33:26;;;;;;;4.85;3.03;;;;;;;;;;4392618;32;64865;-70
2023/10/01 00:36:13;;;;;;;5.00;3.10;;;;;;;;;;4411234;32;66755;-69
2023/10/01 00:38:57;;;;;;;5.93;3.08;;;;;;;;;;3847277;37;43517;-70
2023/10/01 00:41:54;;;;;;;;;;;;;;;;;;;;;
2023/10/01 00:44:29;;;;;;;5.25;3.10;;;;;;;;;;3847374;37;43880;-70
2023/10/01 00:47:18;;;;;;;5.87;3.10;;;;;;;;;;4399526;32;59184;-69
2023/10/01 00:50:05;;;;;;;6.32;3.10;;;;;;;;;;4409641;32;70896;-70
2023/10/01 00:52:57;;;;;;;4.32;2.80;;;;;;;;;;4372177;32;67622;-69
2023/10/01 00:55:43;;;;;;;7.07;3.35;;;;;;;;;;4395626;32;66988;-70
2023/10/01 00:58:30;;;;;;;4.70;2.85;;;;;;;;;;4394190;32;70607;-69
2023/10/01 01:01:17;;;;;;;;;;;;;;;;;;4394674;32;65639;-70
2023/10/01 01:04:08;;;;;;;5.93;2.93;;;;;;;;;;4383336;32;67631;-70
2023/10/01 01:07:00;;;;;;;4.78;3.28;;;;;;;;;;4383846;32;60413;-70
2023/10/01 01:09:48;;;;;;;3.95;3.00;;;;;;;;;;4384236;32;70486;-70
2023/10/01 01:12:35;;;;;;;4.65;2.97;;;;;;;;;;4372265;32;63654;-70
2023/10/01 01:15:23;;;;;;;5.12;2.75;;;;;;;;;;4372346;32;68071;-70
2023/10/01 01:18:13;;;;;;;;;;;;;;;;;;4372670;32;59122;-70
2023/10/01 01:21:05;;;;;;;5.07;3.10;;;;;;;;;;4394094;32;69748;-70
2023/10/01 01:23:53;;;;;;;4.50;3.05;;;;;;;;;;4381985;32;67806;-70
2023/10/01 01:26:38;;;;;;;4.65;3.00;;;;;;;;;;3847340;37;43834;-70
2023/10/01 01:29:40;;;;;;;6.00;3.70;;;;;;;;;;4410041;32;59025;-69
2023/10/01 01:32:27;;;;;;;4.65;3.22;;;;;;;;;;4409735;32;70503;-69
2023/10/01 01:35:15;;;;;;;5.05;3.08;;;;;;;;;;4387685;32;69781;-70
2023/10/01 01:38:04;;;;;;;5.80;3.60;;;;;;;;;;4398865;32;67480;-70
2023/10/01 01:40:52;;;;;;;6.47;3.60;;;;;;;;;;4398042;32;72485;-70
2023/10/01 01:43:39;;;;;;;5.10;2.78;;;;;;;;;;4399127;32;66369;-70
2023/10/01 01:46:26;;;;;;;6.72;3.20;;;;;;;;;;4410918;32;67298;-70
2023/10/01 01:49:11;;;;;;;5.03;3.17;;;;;;;;;;3847373;37;42999;-69
2023/10/01 01:51:59;;;;;;;5.90;3.22;;;;;;;;;;4409335;32;59544;-70
2023/10/01 01:54:46;;;;;;;;;;;;;;;;;;4388072;32;70545;-70
2023/10/01 02:00:17;;;;;;;5.00;3.22;;;;;;;;;;3868783;36;43445;-70
2023/10/01 02:03:10;;;;;;;6.53;3.10;;;;;;;;;;4426654;32;60304;-69
2023/10/01 02:05:57;;;;;;;5.28;3.28;;;;;;;;;;4403931;32;69331;-70
2023/10/01 02:08:51;;;;;;;5.15;3.10;;;;;;;;;;4403593;32;68835;-70
2023/10/01 02:11:38;;;;;;;5.35;3.40;;;;;;;;;;4400573;32;68861;-69
2023/10/01 02:14:32;;;;;;;5.53;3.10;;;;;;;;;;4400892;32;71834;-70
2023/10/01 02:17:21;;;;;;;4.68;3.40;;;;;;;;;;4415180;32;65068;-70
2023/10/01 02:20:27;;;;;;;5.62;3.20;;;;;;;;;;4390085;32;66801;-70
2023/10/01 02:23:17;;;;;;;5.72;3.30;;;;;;;;;;4414132;32;60103;-70
2023/10/01 02:26:06;;;;;;;5.60;3.60;;;;;;;;;;4414253;32;71638;-70
2023/10/01 02:28:53;;;;;;;4.72;3.30;;;;;;;;;;4400459;32;66293;-70
2023/10/01 02:34:28;;;;;;;6.32;3.87;;;;;;;;;;3867290;36;43614;-70
2023/10/01 02:37:29;;;;;;;5.12;3.28;;;;;;;;;;4401420;32;60576;-71
2023/10/01 02:40:18;;;;;;;9.10;3.37;;;;;;;;;;4402164;32;70326;-70
2023/10/01 02:43:08;;;;;;;6.93;3.87;;;;;;;;;;4403351;32;68995;-69
2023/10/01 02:45:54;;;;;;;6.87;3.60;;;;;;;;;;4414296;32;67613;-69
2023/10/01 02:48:42;;;;;;;6.10;3.60;;;;;;;;;;4389726;32;71807;-70
2023/10/01 02:51:38;;;;;;;4.60;3.25;;;;;;;;;;4401283;32;67527;-70
2023/10/01 02:54:26;;;;;;;6.22;3.47;;;;;;;;;;4399362;32;67370;-70
2023/10/01 02:57:13;;;;;;;5.32;3.55;;;;;;;;;;4375231;32;61470;-70
2023/10/01 03:03:14;;;;;;;4.87;3.35;;;;;;;;;;3868724;36;43422;-71
2023/10/01 03:06:08;;;;;;;4.87;3.08;;;;;;;;;;4401703;32;60567;-70
2023/10/01 03:11:44;;;;;;;6.03;3.78;;;;;;;;;;4389996;32;70375;-71
2023/10/01 03:14:34;;;;;;;6.32;3.35;;;;;;;;;;4401171;32;68528;-69
2023/10/01 03:26:04;;;;;;;5.60;4.15;;;;;;;;;;3846126;37;43815;-70
2023/10/01 03:32:32;;;;;;;5.65;3.37;;;;;;;;;;4328117;32;70825;-70
2023/10/01 03:35:21;;;;;;;7.00;3.72;;;;;;;;;;4334795;32;70928;-70
2023/10/01 03:38:10;;;;;;;6.30;3.53;;;;;;;;;;4387375;32;67906;-70
2023/10/01 03:40:58;;;;;;;5.03;3.53;;;;;;;;;;4377720;32;71353;-70
2023/10/01 03:43:45;;;;;;;7.25;3.80;;;;;;;;;;4398714;32;66074;-70
2023/10/01 03:46:32;;;;;;;5.82;3.30;;;;;;;;;;4388299;32;66374;-70
2023/10/01 03:49:37;;;;;;;4.72;3.20;;;;;;;;;;4388273;32;59390;-69
2023/10/01 03:52:29;;;;;;;6.53;3.30;;;;;;;;;;4387596;32;70869;-69
2023/10/01 03:55:39;;;;;;;4.32;2.80;;;;;;;;;;4398575;32;64867;-70
2023/10/01 03:58:26;;;;;;;5.43;3.05;;;;;;;;;;4390124;32;67827;-70
2023/10/01 04:01:58;;;;;;;5.00;3.12;;;;;;;;;;3868511;36;43822;-69
2023/10/01 04:04:56;;;;;;;6.18;2.90;;;;;;;;;;4411831;32;61189;-70
2023/10/01 04:07:43;;;;;;;6.75;2.90;;;;;;;;;;4391262;32;71655;-70
2023/10/01 04:10:35;;;;;;;4.45;2.90;;;;;;;;;;4411327;32;70289;-71
2023/10/01 04:13:23;;;;;;;5.82;2.65;;;;;;;;;;4390533;32;67931;-70
2023/10/01 04:16:15;;;;;;;3.58;2.37;;;;;;;;;;4401109;32;73214;-69
2023/10/01 04:19:01;;;;;;;5.37;2.70;;;;;;;;;;4390509;32;67397;-70
2023/10/01 04:21:50;;;;;;;5.68;3.15;;;;;;;;;;4426219;32;66269;-70
2023/10/01 04:24:37;;;;;;;4.32;2.72;;;;;;;;;;4403757;32;59400;-70
2023/10/01 04:27:24;;;;;;;4.35;2.67;;;;;;;;;;4389984;32;72441;-70
2023/10/01 04:30:11;;;;;;;4.10;2.40;;;;;;;;;;4400322;32;66287;-70
2023/10/01 04:32:58;;;;;;;4.72;2.62;;;;;;;;;;4403100;32;66602;-70
2023/10/01 04:36:01;;;;;;;6.80;2.83;;;;;;;;;;4403197;32;59482;-70
2023/10/01 04:38:51;;;;;;;3.62;2.10;;;;;;;;;;4404507;32;70890;-69
2023/10/01 04:41:38;;;;;;;3.92;2.30;;;;;;;;;;4415234;32;69338;-70
2023/10/01 04:44:25;;;;;;;4.87;2.53;;;;;;;;;;4414077;32;66776;-69
2023/10/01 04:50:19;;;;;;;3.75;2.50;;;;;;;;;;4391498;32;66671;-70
2023/10/01 04:53:07;;;;;;;3.40;2.17;;;;;;;;;;4414059;32;69493;-69
2023/10/01 04:56:01;;;;;;;5.37;2.17;;;;;;;;;;4403047;32;66702;-70
2023/10/01 04:58:54;;;;;;;3.50;2.40;;;;;;;;;;4400248;32;72759;-70
2023/10/01 05:01:41;;;;;;;3.12;1.90;;;;;;;;;;4393905;32;65945;-70
2023/10/01 05:04:30;;;;;;;3.45;2.20;;;;;;;;;;4383040;32;66732;-70
2023/10/01 05:07:17;;;;;;;3.70;2.42;;;;;;;;;;4393338;32;61071;-70
2023/10/01 05:10:04;;;;;;;4.60;2.53;;;;;;;;;;4393549;32;69699;-70
2023/10/01 05:12:55;;;;;;;4.12;2.35;;;;;;;;;;4372374;32;69521;-69
2023/10/01 05:15:41;;;;;;;3.45;2.25;;;;;;;;;;4373144;32;67573;-70
2023/10/01 05:18:28;;;;;;;4.28;2.37;;;;;;;;;;4362102;32;60461;-69
2023/10/01 05:21:18;;;;;;;4.70;2.58;;;;;;;;;;4361715;32;70752;-70
2023/10/01 05:24:05;;;;;;;4.55;2.37;;;;;;;;;;4372222;32;68194;-70
2023/10/01 05:26:52;;;;;;;5.85;2.50;;;;;;;;;;4382908;32;68848;-69
2023/10/01 05:29:42;;;;;;;3.58;2.30;;;;;;;;;;4372004;32;71034;-69
2023/10/01 05:32:48;;;;;;;6.80;3.00;;;;;;;;;;4372408;32;66307;-70
2023/10/01 05:35:41;;;;;;;5.43;2.40;;;;;;;;;;4352526;32;67360;-71
2023/10/01 05:38:27;;;;;;;5.20;2.53;;;;;;;;;;4372529;32;60315;-70
2023/10/01 05:41:15;;;;;;;4.10;2.33;;;;;;;;;;4382894;32;71158;-71
2023/10/01 05:44:04;;;;;;;3.12;2.03;;;;;;;;;;4384471;32;65022;-70
2023/10/01 05:46:54;;;;;;;4.07;2.40;;;;;;;;;;4383252;32;67865;-70
2023/10/01 05:49:49;;;;;;;4.93;2.87;;;;;;;;;;4371947;32;60667;-70
2023/10/01 05:52:40;;;;;;;4.35;2.45;;;;;;;;;;4371776;32;71493;-70
2023/10/01 05:55:28;;;;;;;4.12;2.05;;;;;;;;;;4372474;32;68472;-71
2023/10/01 05:58:16;;;;;;;4.25;2.50;;;;;;;;;;4382919;32;67293;-70
2023/10/01 06:01:13;;;;;;;3.80;2.28;;;;;;;;;;4356654;32;72176;-70
2023/10/01 06:04:00;;;;;;;3.15;2.17;;;;;;;;;;4382271;32;66249;-70
2023/10/01 06:06:50;;;;;;;4.03;2.20;;;;;;;;;;4382883;32;66506;-70
2023/10/01 06:09:36;;;;;;;3.25;2.00;;;;;;;;;;4371348;32;67901;-70
2023/10/01 06:12:23;;;;;;;2.15;1.87;;;;;;;;;;4371054;32;71348;-71
2023/10/01 06:15:12;;;;;;;;;;;;;;;;;;4362097;32;66055;-70
2023/10/01 06:18:00;;;;;;;3.67;2.20;;;;;;;;;;4383070;32;67885;-70
2023/10/01 06:20:47;;;;;;;3.70;1.87;;;;;;;;;;4361609;32;60576;-69
2023/10/01 06:23:30;;;;;;;2.87;2.10;;;;;;;;;;3868645;36;43870;-69
2023/10/01 06:26:22;;;;;;;2.70;2.08;;;;;;;;;;4414697;32;59111;-70
2023/10/01 06:29:13;;;;;;;3.87;2.17;;;;;;;;;;4413927;32;69881;-71
2023/10/01 06:32:00;;;;;;;3.78;2.10;;;;;;;;;;4390181;32;71464;-71
2023/10/01 06:34:49;;;;;;;3.33;2.28;;;;;;;;;;4411377;32;67863;-70
2023/10/01 06:37:45;;;;;;;3.30;2.33;;;;;;;;;;4400897;32;72502;-71
2023/10/01 06:40:32;;;;;;;3.30;1.80;;;;;;;;;;4425933;32;65556;-70
2023/10/01 06:43:20;;;;;;;3.30;2.10;;;;;;;;;;4389702;32;68077;-70
2023/10/01 06:46:06;;;;;;;4.50;2.42;;;;;;;;;;4390072;32;61015;-68
2023/10/01 06:48:55;;;;;;;;;;;;;;;;;;4403316;32;71946;-69
2023/10/01 06:51:44;;;;;;;4.72;2.30;;;;;;;;;;4403448;32;65931;-71
2023/10/01 06:54:33;;;;;;;3.55;2.20;;;;;;;;;;4400826;32;68233;-70
2023/10/01 06:57:33;;;;;;;3.83;2.22;;;;;;;;;;3847368;37;43615;-71
2023/10/01 07:00:24;;;;;;;7.95;2.30;;;;;;;;;;4411211;32;59270;-70
2023/10/01 07:03:18;;;;;;;5.28;2.60;;;;;;;;;;4409584;32;69341;-69
2023/10/01 07:06:04;;;;;;;3.35;2.35;;;;;;;;;;4409078;32;70761;-70
2023/10/01 07:08:53;;;;;;;4.70;2.15;;;;;;;;;;4409641;32;66892;-70
2023/10/01 07:11:41;;;;;;;2.87;2.03;;;;;;;;;;4388248;32;70924;-71
2023/10/01 07:14:50;;;;;;;3.37;2.08;;;;;;;;;;4388333;32;65855;-70
2023/10/01 07:17:37;;;;;;;2.50;1.85;;;;;;;;;;4397973;32;67282;-70
2023/10/01 07:20:25;;;;;;;;;;;;;;;;;;4409390;32;60957;-69
2023/10/01 07:23:13;;;;;;;5.53;2.35;;;;;;;;;;4399033;32;71131;-69
2023/10/01 07:26:05;;;;;;;2.78;1.83;;;;;;;;;;4409366;32;64677;-70
2023/10/01 07:28:56;;;;;;;2.30;1.87;;;;;;;;;;4398582;32;65593;-69
2023/10/01 07:31:43;;;;;;;2.78;2.03;;;;;;;;;;4376674;32;60894;-70
2023/10/01 07:34:31;;;;;;;2.97;1.95;;;;;;;;;;4397891;32;70784;-70
2023/10/01 07:37:25;;;;;;;2.72;2.08;;;;;;;;;;4410389;32;69598;-70
2023/10/01 07:40:17;;;;;;;2.80;2.15;;;;;;;;;;4398494;32;67939;-70
2023/10/01 07:43:04;;;;;;;2.60;1.90;;;;;;;;;;4397837;32;71298;-70
2023/10/01 07:45:57;;;;;;;;;;;;;;;;;;4398691;32;69272;-70
2023/10/01 07:48:47;;;;;;;3.45;2.25;;;;;;;;;;4387894;32;69556;-70
2023/10/01 07:51:38;;;;;;;3.15;2.40;;;;;;;;;;4398142;32;67306;-70
2023/10/01 07:54:28;;;;;;;3.55;2.37;;;;;;;;;;4393176;32;72882;-70
2023/10/01 07:57:28;;;;;;;3.45;2.40;;;;;;;;;;4394724;32;65144;-71
2023/10/01 08:00:34;;;;;;;3.83;2.50;;;;;;;;;;4394192;32;67524;-70
2023/10/01 08:06:16;;;;;;;5.07;2.92;;;;;;;;;;4393471;32;69558;-69
2023/10/01 08:09:08;;;;;;;4.28;2.50;;;;;;;;;;4383140;32;69426;-70
2023/10/01 08:12:07;;;;;;;5.03;2.60;;;;;;;;;;4372868;32;67390;-69
2023/10/01 08:18:34;;;;;;;4.97;2.65;;;;;;;;;;4383266;32;70117;-70
2023/10/01 08:21:29;;;;;;;5.05;2.60;;;;;;;;;;4375842;32;67475;-69
2023/10/01 08:24:19;;;;;;;4.78;2.70;;;;;;;;;;4384913;32;66878;-70
2023/10/01 08:27:12;;;;;;;3.50;2.25;;;;;;;;;;4372393;32;72827;-70
2023/10/01 08:30:20;;;;;;;3.92;2.30;;;;;;;;;;4362131;32;67369;-69
2023/10/01 08:33:22;;;;;;;4.50;2.50;;;;;;;;;;4375887;32;66555;-71
2023/10/01 08:36:14;;;;;;;4.32;2.50;;;;;;;;;;4375107;32;59938;-69
2023/10/01 08:42:08;;;;;;;3.20;2.00;;;;;;;;;;4391586;32;60842;-69
2023/10/01 08:45:06;;;;;;;7.37;2.35;;;;;;;;;;4379734;32;71619;-72
2023/10/01 08:47:59;;;;;;;3.55;2.22;;;;;;;;;;4400459;32;69086;-70
2023/10/01 08:50:46;;;;;;;5.12;2.30;;;;;;;;;;4399046;32;69588;-69
2023/10/01 08:53:43;;;;;;;2.67;2.08;;;;;;;;;;4410881;32;70796;-72
2023/10/01 08:56:33;;;;;;;3.90;2.17;;;;;;;;;;4388947;32;64874;-69
2023/10/01 08:59:23;;;;;;;4.50;2.40;;;;;;;;;;4410322;32;67080;-70
2023/10/01 09:02:21;;;;;;;4.57;2.20;;;;;;;;;;4399404;32;60445;-69
2023/10/01 09:05:11;;;;;;;3.33;2.20;;;;;;;;;;4398728;32;72816;-68
2023/10/01 09:08:16;;;;;;;5.00;2.47;;;;;;;;;;4409555;32;65857;-70
2023/10/01 09:11:12;;;;;;;6.12;2.60;;;;;;;;;;4409644;32;67725;-70
2023/10/01 09:14:14;;;;;;;4.35;2.80;;;;;;;;;;4389176;32;59008;-68
2023/10/01 09:17:27;;;;;;;3.20;2.30;;;;;;;;;;4399501;32;71233;-70
2023/10/01 09:20:17;;;;;;;4.18;2.80;;;;;;;;;;4410460;32;68361;-71
2023/10/01 09:23:07;;;;;;;7.18;2.28;;;;;;;;;;4387731;32;68743;-70
2023/10/01 09:26:00;;;;;;;5.72;2.20;;;;;;;;;;4387845;32;69526;-69
2023/10/01 09:28:47;;;;;;;4.40;2.10;;;;;;;;;;4397878;32;67464;-69
2023/10/01 09:31:52;;;;;;;;;;;;;;;;;;4398697;32;69417;-69
2023/10/01 09:34:58;;;;;;;6.03;2.83;;;;;;;;;;4409232;32;67819;-70
2023/10/01 09:37:52;;;;;;;5.30;2.70;;;;;;;;;;4386195;32;69696;-71
2023/10/01 09:40:45;;;;;;;4.62;2.37;;;;;;;;;;4398548;32;67486;-70
2023/10/01 09:43:34;;;;;;;5.72;2.45;;;;;;;;;;4408986;32;66562;-70
2023/10/01 09:46:21;;;;;;;6.43;2.92;;;;;;;;;;4398787;32;59076;-70
2023/10/01 09:49:08;;;;;;;3.55;2.20;;;;;;;;;;4403706;32;70129;-69
2023/10/01 09:51:58;;;;;;;4.90;2.70;;;;;;;;;;4388027;32;68129;-70
2023/10/01 09:54:48;;;;;;;3.85;2.30;;;;;;;;;;4388302;32;67961;-70
2023/10/01 09:57:37;;;;;;;4.35;2.70;;;;;;;;;;4387869;32;60674;-70
2023/10/01 10:00:39;;;;;;;5.05;2.78;;;;;;;;;;4376203;32;70959;-69
2023/10/01 10:03:37;;;;;;;4.93;2.70;;;;;;;;;;4389605;32;68371;-70
2023/10/01 10:06:27;;;;;;;4.97;2.78;;;;;;;;;;4388320;32;67546;-69
2023/10/01 10:09:27;;;;;;;4.53;3.15;;;;;;;;;;4398348;32;71803;-70
2023/10/01 10:12:14;;;;;;;4.62;2.72;;;;;;;;;;4398765;32;66025;-69
2023/10/01 10:15:01;;;;;;;5.22;3.28;;;;;;;;;;4394411;32;67352;-71
2023/10/01 10:17:58;;;;;;;5.57;3.10;;;;;;;;;;4384138;32;71187;-69
2023/10/01 10:21:03;;;;;;;6.05;3.10;;;;;;;;;;4385244;32;70901;-67
2023/10/01 10:23:55;;;;;;;4.40;2.70;;;;;;;;;;4374775;32;65620;-66
2023/10/01 10:26:56;;;;;;;5.35;2.50;;;;;;;;;;4379012;32;66968;-66
2023/10/01 10:29:46;;;;;;;4.57;2.80;;;;;;;;;;4367383;32;59731;-67
2023/10/01 10:32:44;;;;;;;4.22;2.40;;;;;;;;;;4383321;32;71092;-70
2023/10/01 10:35:31;;;;;;;5.45;2.72;;;;;;;;;;4385754;32;68387;-73
2023/10/01 10:38:52;;;;;;;4.55;2.70;;;;;;;;;;4372897;32;67857;-73
2023/10/01 10:42:31;;;;;;;4.70;2.62;;;;;;;;;;4379177;32;71295;-71
2023/10/01 10:45:20;;;;;;;4.70;2.90;;;;;;;;;;4376397;32;67117;-70
2023/10/01 10:48:07;;;;;;;3.47;2.70;;;;;;;;;;4367237;32;67936;-64
2023/10/01 10:51:02;;;;;;;3.53;2.40;;;;;;;;;;4361039;32;68362;-65
2023/10/01 10:53:58;;;;;;;6.17;3.10;;;;;;;;;;4387679;32;71103;-67
2023/10/01 10:56:44;;;;;;;4.85;2.87;;;;;;;;;;4383822;32;64411;-67
2023/10/01 10:59:31;;;;;;;6.35;3.28;;;;;;;;;;4384605;32;66202;-70
2023/10/01 11:02:18;;;;;;;5.68;3.08;;;;;;;;;;4377462;32;59702;-65
2023/10/01 11:05:07;;;;;;;;;;;;;;;;;;4389217;32;70707;-68
2023/10/01 11:07:58;;;;;;;5.22;3.35;;;;;;;;;;4381572;32;68533;-68
2023/10/01 11:10:48;;;;;;;7.37;3.30;;;;;;;;;;4384842;32;69543;-69
2023/10/01 11:13:45;;;;;;;5.97;3.20;;;;;;;;;;4374049;32;60204;-70
2023/10/01 11:16:44;;;;;;;5.30;3.10;;;;;;;;;;4379254;32;70800;-69
2023/10/01 11:19:35;;;;;;;5.15;3.25;;;;;;;;;;4376925;32;69119;-70
2023/10/01 11:22:24;;;;;;;5.45;3.25;;;;;;;;;;4369251;32;66206;-71
2023/10/01 11:25:12;;;;;;;6.90;4.00;;;;;;;;;;4367605;32;71705;-68
2023/10/01 11:28:08;;;;;;;6.62;3.62;;;;;;;;;;4370748;32;66271;-64
2023/10/01 11:30:57;;;;;;;6.75;3.78;;;;;;;;;;4392596;32;67349;-65
2023/10/01 11:33:47;;;;;;;8.13;3.72;;;;;;;;;;4379001;32;60235;-65
2023/10/01 11:36:42;;;;;;;8.13;3.50;;;;;;;;;;4369733;32;70786;-72
2023/10/01 11:39:49;;;;;;;10.45;3.75;;;;;;;;;;4383248;32;65610;-71
2023/10/01 11:42:35;;;;;;;7.12;3.70;;;;;;;;;;4390091;32;66375;-66
2023/10/01 11:45:31;;;;;;;7.12;3.83;;;;;;;;;;4372098;32;60825;-69
2023/10/01 11:48:28;;;;;;;5.25;3.47;;;;;;;;;;4382121;32;71950;-66
2023/10/01 11:51:26;;;;;;;;;;;;;;;;;;4376451;32;69437;-72
2023/10/01 11:54:17;;;;;;;6.35;4.15;;;;;;;;;;4378882;32;67411;-65
2023/10/01 11:57:08;;;;;;;7.55;3.80;;;;;;;;;;4374741;32;70561;-68
2023/10/01 11:59:56;;;;;;;6.35;3.87;;;;;;;;;;4375169;32;66670;-65
2023/10/01 12:02:45;;;;;;;5.68;3.67;;;;;;;;;;4385398;32;66414;-71
2023/10/01 12:05:38;;;;;;;6.47;4.25;;;;;;;;;;4381058;32;67367;-64
2023/10/01 12:08:47;;;;;;;7.45;3.78;;;;;;;;;;4378420;32;71590;-64
2023/10/01 12:11:36;;;;;;;7.05;3.62;;;;;;;;;;4382395;32;65807;-71
2023/10/01 12:14:25;;;;;;;7.03;4.00;;;;;;;;;;4392835;32;67081;-70
2023/10/01 12:17:13;;;;;;;6.60;4.03;;;;;;;;;;4386687;32;61297;-69
2023/10/01 12:20:01;;;;;;;5.78;4.00;;;;;;;;;;4377865;32;69819;-69
2023/10/01 12:23:08;;;;;;;7.05;3.78;;;;;;;;;;4377325;32;67994;-69
2023/10/01 12:26:31;;;;;;;8.47;4.07;;;;;;;;;;4377927;32;67770;-69
2023/10/01 12:29:12;;;;;;;6.55;3.97;;;;;;;;;;4377784;32;70506;-69
2023/10/01 12:31:59;;;;;;;7.75;4.07;;;;;;;;;;4368044;32;70500;-70
2023/10/01 12:34:46;;;;;;;7.53;4.25;;;;;;;;;;4345636;32;69862;-69
2023/10/01 12:37:36;;;;;;;;;;;;;;;;;;4356454;32;68553;-69
2023/10/01 12:40:24;;;;;;;9.65;4.03;;;;;;;;;;4367530;32;71717;-68
2023/10/01 12:46:18;;;;;;;7.22;3.80;;;;;;;;;;4377201;32;67643;-69
2023/10/01 12:49:17;;;;;;;5.90;3.58;;;;;;;;;;4377444;32;60235;-69
2023/10/01 12:52:08;;;;;;;7.55;3.28;;;;;;;;;;4377177;32;69608;-69
2023/10/01 12:55:00;;;;;;;5.45;3.45;;;;;;;;;;4366663;32;68416;-68
2023/10/01 12:57:47;;;;;;;5.05;3.55;;;;;;;;;;4377148;32;68724;-68
2023/10/01 13:00:46;;;;;;;;;;;;;;;;;;4366943;32;61381;-70
2023/10/01 13:03:42;;;;;;;5.87;3.65;;;;;;;;;;4368282;32;69983;-69
2023/10/01 13:06:28;;;;;;;6.43;3.60;;;;;;;;;;4367665;32;69401;-69
2023/10/01 13:09:35;;;;;;;5.25;3.08;;;;;;;;;;4378653;32;66975;-70
2023/10/01 13:12:25;;;;;;;6.03;3.15;;;;;;;;;;4378344;32;71447;-68
2023/10/01 13:15:15;;;;;;;6.05;3.70;;;;;;;;;;4366932;32;65869;-67
2023/10/01 13:18:04;;;;;;;4.82;3.37;;;;;;;;;;4360493;32;67714;-69
2023/10/01 13:23:44;;;;;;;5.97;3.47;;;;;;;;;;4394271;32;72512;-69
2023/10/01 13:26:33;;;;;;;7.20;3.72;;;;;;;;;;4384530;32;65579;-69
2023/10/01 13:29:28;;;;;;;5.40;3.60;;;;;;;;;;4384266;32;67688;-69
2023/10/01 13:32:16;;;;;;;6.65;3.40;;;;;;;;;;4385347;32;60111;-69
2023/10/01 13:35:31;;;;;;;6.57;3.83;;;;;;;;;;4383508;32;69156;-67
2023/10/01 13:38:26;;;;;;;6.77;4.03;;;;;;;;;;4383128;32;70066;-68
2023/10/01 14:09:09;;;;;;;6.53;4.00;;;;;;;;;;4395483;32;70485;-69
2023/10/01 14:11:56;;;;;;;6.35;3.65;;;;;;;;;;4350238;32;69650;-69
2023/10/01 14:14:43;;;;;;;9.73;4.18;;;;;;;;;;4357577;32;69092;-69
2023/10/01 14:17:30;;;;;;;8.80;3.78;;;;;;;;;;4393716;32;58592;-69
2023/10/01 14:20:37;;;;;;;8.07;3.85;;;;;;;;;;4394295;32;70682;-68
2023/10/01 14:23:28;;;;;;;7.15;3.80;;;;;;;;;;4395819;32;69190;-69
2023/10/01 14:26:20;;;;;;;8.02;4.15;;;;;;;;;;4384499;32;67519;-69
2023/10/01 14:29:07;;;;;;;7.15;3.83;;;;;;;;;;4383268;32;72922;-68
2023/10/01 14:31:53;;;;;;;;;;;;;;;;;;4396504;32;67046;-69
2023/10/01 14:34:40;;;;;;;7.70;3.90;;;;;;;;;;4383651;32;67913;-67
2023/10/01 14:37:28;;;;;;;6.07;3.87;;;;;;;;;;4372942;32;59799;-68
2023/10/01 14:40:15;;;;;;;6.07;3.40;;;;;;;;;;4383398;32;71929;-68
2023/10/01 14:43:03;;;;;;;5.70;3.50;;;;;;;;;;4383490;32;64503;-68
2023/10/01 14:45:51;;;;;;;6.18;3.97;;;;;;;;;;4383315;32;67726;-69
2023/10/01 14:48:38;;;;;;;5.93;3.55;;;;;;;;;;4383809;32;60375;-69
2023/10/01 14:51:29;;;;;;;5.90;3.78;;;;;;;;;;4394069;32;70130;-69
2023/10/01 14:54:18;;;;;;;5.85;3.17;;;;;;;;;;4393660;32;69199;-69
2023/10/01 14:57:07;;;;;;;4.95;3.30;;;;;;;;;;4382857;32;69263;-70
2023/10/01 14:59:56;;;;;;;6.20;3.37;;;;;;;;;;4382867;32;73013;-69
2023/10/01 15:02:42;;;;;;;4.62;3.03;;;;;;;;;;4382456;32;66934;-68
2023/10/01 15:05:28;;;;;;;6.00;3.17;;;;;;;;;;4372369;32;69105;-68
2023/10/01 15:08:15;;;;;;;5.10;3.10;;;;;;;;;;4383191;32;67351;-69
2023/10/01 15:11:12;;;;;;;5.37;3.10;;;;;;;;;;4387754;32;72155;-67
2023/10/01 15:14:11;;;;;;;4.78;2.85;;;;;;;;;;4368814;32;65585;-68
2023/10/01 15:17:00;;;;;;;4.80;3.40;;;;;;;;;;4367114;32;68711;-68
2023/10/01 15:19:53;;;;;;;5.70;2.85;;;;;;;;;;4382579;32;61072;-69
2023/10/01 15:22:43;;;;;;;4.95;3.20;;;;;;;;;;4393527;32;70169;-69
2023/10/01 15:25:32;;;;;;;4.60;2.83;;;;;;;;;;4381975;32;71124;-69
2023/10/01 15:28:21;;;;;;;6.03;2.83;;;;;;;;;;4393114;32;68135;-68
2023/10/01 15:31:12;;;;;;;8.13;4.30;;;;;;;;;;4393803;32;59890;-69
2023/10/01 15:34:38;;;;;;;5.78;3.30;;;;;;;;;;4382698;32;71881;-67
2023/10/01 15:37:15;;;;;;;4.90;3.00;;;;;;;;;;4383985;32;69388;-70
2023/10/01 15:40:23;;;;;;;5.85;3.12;;;;;;;;;;4381912;32;68417;-69
2023/10/01 15:43:08;;;;;;;6.28;3.40;;;;;;;;;;4393190;32;70465;-69
2023/10/01 15:46:11;;;;;;;5.45;3.22;;;;;;;;;;4372622;32;66809;-67
2023/10/01 15:51:44;;;;;;;4.85;3.30;;;;;;;;;;3841044;37;43644;-69
2023/10/01 15:54:33;;;;;;;6.15;3.40;;;;;;;;;;4354894;32;60032;-68
2023/10/01 15:57:20;;;;;;;6.28;3.08;;;;;;;;;;4365220;32;70590;-69
2023/10/01 16:00:40;;;;;;;5.90;2.87;;;;;;;;;;4354013;32;69034;-69
2023/10/01 16:03:29;;;;;;;5.28;3.17;;;;;;;;;;4375164;32;66794;-69
2023/10/01 16:06:16;;;;;;;8.53;3.60;;;;;;;;;;4375148;32;71502;-70
2023/10/01 16:09:06;;;;;;;5.75;3.33;;;;;;;;;;4375184;32;65710;-67
2023/10/01 16:11:54;;;;;;;5.43;3.20;;;;;;;;;;4363316;32;68628;-69
2023/10/01 16:14:43;;;;;;;5.78;3.33;;;;;;;;;;4349530;32;60363;-69
2023/10/01 16:17:31;;;;;;;6.12;3.65;;;;;;;;;;4349070;32;71516;-69
2023/10/01 16:20:19;;;;;;;5.47;3.15;;;;;;;;;;4359453;32;65952;-69
2023/10/01 16:23:14;;;;;;;5.65;2.80;;;;;;;;;;4349248;32;67516;-68
2023/10/01 16:26:01;;;;;;;5.10;3.33;;;;;;;;;;4350408;32;59662;-68
2023/10/01 16:28:47;;;;;;;5.68;3.33;;;;;;;;;;4359834;32;70422;-69
2023/10/01 16:31:34;;;;;;;;;;;;;;;;;;4360227;32;69289;-69
2023/10/01 16:34:22;;;;;;;6.07;3.33;;;;;;;;;;4360420;32;66695;-69
2023/10/01 16:37:21;;;;;;;6.65;3.10;;;;;;;;;;4340307;32;70319;-69
2023/10/01 16:40:18;;;;;;;5.28;2.65;;;;;;;;;;4363365;32;65002;-69
2023/10/01 16:43:14;;;;;;;8.13;2.90;;;;;;;;;;4350822;32;69501;-68
2023/10/01 16:46:01;;;;;;;8.32;3.10;;;;;;;;;;4350254;32;67554;-68
2023/10/01 16:48:49;;;;;;;6.78;3.40;;;;;;;;;;4359779;32;70780;-72
2023/10/01 16:51:35;;;;;;;5.57;2.65;;;;;;;;;;4348909;32;65856;-68
2023/10/01 16:54:24;;;;;;;5.57;2.90;;;;;;;;;;4361093;32;67450;-69
2023/10/01 16:57:14;;;;;;;5.78;3.03;;;;;;;;;;4349244;32;60346;-69
2023/10/01 17:00:00;;;;;;;5.32;2.90;;;;;;;;;;4349118;32;70739;-68
2023/10/01 17:02:47;;;;;;;5.12;3.28;;;;;;;;;;4350362;32;69612;-69
2023/10/01 17:05:38;;;;;;;4.37;2.83;;;;;;;;;;4338825;32;66224;-69
2023/10/01 17:08:24;;;;;;;8.23;3.22;;;;;;;;;;4338990;32;57987;-68
2023/10/01 17:11:12;;;;;;;5.62;3.03;;;;;;;;;;4363791;32;71031;-68
2023/10/01 17:14:11;;;;;;;7.18;3.08;;;;;;;;;;4369047;32;68256;-68
2023/10/01 17:17:02;;;;;;;5.45;2.87;;;;;;;;;;4345935;32;68089;-69
2023/10/01 17:19:50;;;;;;;7.78;3.17;;;;;;;;;;4349235;32;71912;-66
2023/10/01 17:22:36;;;;;;;5.55;3.12;;;;;;;;;;4349273;32;64513;-69
2023/10/01 17:25:26;;;;;;;7.25;3.25;;;;;;;;;;4349190;32;66417;-69
2023/10/01 17:28:27;;;;;;;7.78;3.53;;;;;;;;;;4338409;32;61549;-70
2023/10/01 17:31:17;;;;;;;7.72;3.75;;;;;;;;;;4349077;32;69614;-69
2023/10/01 17:34:04;;;;;;;5.30;3.42;;;;;;;;;;4349320;32;65937;-69
2023/10/01 17:37:20;;;;;;;9.07;3.33;;;;;;;;;;4348342;32;68764;-69
2023/10/01 17:40:17;;;;;;;8.93;4.07;;;;;;;;;;4349286;32;59095;-68
2023/10/01 17:43:06;;;;;;;6.32;3.40;;;;;;;;;;4348685;32;70510;-71
2023/10/01 17:46:02;;;;;;;8.00;3.22;;;;;;;;;;4317307;32;70571;-68
2023/10/01 17:48:54;;;;;;;6.25;3.55;;;;;;;;;;4338165;32;67640;-69
2023/10/01 17:51:45;;;;;;;5.32;3.30;;;;;;;;;;4337972;32;73353;-69
2023/10/01 17:54:34;;;;;;;5.78;3.25;;;;;;;;;;4328022;32;65570;-67
2023/10/01 17:57:26;;;;;;;6.65;3.42;;;;;;;;;;4338641;32;66586;-67
2023/10/01 18:00:31;;;;;;;6.20;3.10;;;;;;;;;;4337793;32;67919;-68
2023/10/01 18:03:27;;;;;;;7.15;3.70;;;;;;;;;;4339299;32;72496;-69
2023/10/01 18:06:20;;;;;;;5.93;3.45;;;;;;;;;;4350100;32;64233;-69
2023/10/01 18:09:13;;;;;;;5.40;2.60;;;;;;;;;;4338213;32;66248;-69
2023/10/01 18:12:13;;;;;;;4.75;3.00;;;;;;;;;;4361891;32;62660;-68
2023/10/01 18:15:02;;;;;;;4.95;3.30;;;;;;;;;;4368833;32;70174;-68
2023/10/01 18:17:49;;;;;;;6.22;3.25;;;;;;;;;;4338311;32;70243;-68
2023/10/01 18:20:37;;;;;;;5.65;3.00;;;;;;;;;;4337868;32;67609;-69
2023/10/01 18:23:25;;;;;;;5.15;2.80;;;;;;;;;;4348699;32;60117;-69
2023/10/01 18:26:12;;;;;;;5.35;2.92;;;;;;;;;;4337018;32;71798;-69
2023/10/01 18:29:00;;;;;;;6.45;2.97;;;;;;;;;;4349520;32;68431;-69
2023/10/01 18:31:50;;;;;;;7.80;2.87;;;;;;;;;;4338198;32;67140;-67